Time;durP1;ratioP1;P1;durP2;ratioP2;P2;SDS_P1;SDS_P2;PMS_P1;PMS_P2;Temp;Humidity;BMP_temperature;BMP_pressure;BME280_temperature;BME280_humidity;BME280_pressure;Samples;Min_cycle;Max_cycle;Signal;HPM_P1;HPM_P2
2023/02/22 00:01:34;;;;;;;8.25;5.47;;;;;;;;;;5065081;28;20021;-45
2023/02/22 00:04:02;;;;;;;8.75;5.13;;;;;;;;;;5063108;28;20417;-45
2023/02/22 00:06:29;;;;;;;8.30;6.03;;;;;;;;;;5086226;28;20094;-44
2023/02/22 00:08:57;;;;;;;6.55;5.28;;;;;;;;;;5085260;28;20024;-44
2023/02/22 00:11:23;;;;;;;7.25;5.60;;;;;;;;;;5046789;28;20025;-47
2023/02/22 00:13:49;;;;;;;6.07;4.65;;;;;;;;;;5064725;28;20044;-45
2023/02/22 00:16:19;;;;;;;8.13;5.20;;;;;;;;;;5080525;28;20099;-47
2023/02/22 00:18:47;;;;;;;7.57;4.93;;;;;;;;;;5084139;28;20144;-45
2023/02/22 00:21:14;;;;;;;8.43;5.85;;;;;;;;;;5084580;28;20023;-46
2023/02/22 00:23:48;;;;;;;9.20;5.93;;;;;;;;;;5085105;28;20040;-46
2023/02/22 00:26:17;;;;;;;;;;;;;;;;;;5085191;28;20020;-45
2023/02/22 00:28:47;;;;;;;7.90;5.55;;;;;;;;;;5085083;28;19911;-45
2023/02/22 00:31:14;;;;;;;8.38;5.43;;;;;;;;;;5084654;28;20149;-44
2023/02/22 00:33:40;;;;;;;6.60;5.05;;;;;;;;;;5084629;28;20109;-46
2023/02/22 00:36:07;;;;;;;9.23;5.72;;;;;;;;;;5084440;28;20213;-47
2023/02/22 00:38:34;;;;;;;8.52;5.55;;;;;;;;;;5084866;28;20095;-45
2023/02/22 00:41:00;;;;;;;7.57;5.43;;;;;;;;;;5085227;28;20028;-47
2023/02/22 00:43:27;;;;;;;7.18;5.13;;;;;;;;;;5084733;28;20024;-46
2023/02/22 00:45:53;;;;;;;6.75;4.75;;;;;;;;;;5084176;28;20099;-47
2023/02/22 00:48:19;;;;;;;6.43;4.40;;;;;;;;;;5084081;28;20443;-45
2023/02/22 00:50:47;;;;;;;8.50;5.70;;;;;;;;;;5084393;28;20020;-44
2023/02/22 00:53:14;;;;;;;8.88;6.22;;;;;;;;;;5084134;28;20494;-46
2023/02/22 00:55:40;;;;;;;7.93;5.25;;;;;;;;;;5084376;28;20035;-45
2023/02/22 00:58:07;;;;;;;8.95;5.43;;;;;;;;;;5084104;28;20128;-46
2023/02/22 01:00:33;;;;;;;8.85;5.80;;;;;;;;;;5084550;28;20066;-46
2023/02/22 01:02:59;;;;;;;7.85;5.32;;;;;;;;;;5084325;28;20404;-44
2023/02/22 06:11:53;;;;;;;4.18;3.28;;;;;;;;;;5087011;28;20697;-46
2023/02/22 06:14:19;;;;;;;5.38;3.75;;;;;;;;;;5091778;28;20040;-47
2023/02/22 06:16:51;;;;;;;5.93;4.38;;;;;;;;;;5091761;28;20020;-45
2023/02/22 06:19:17;;;;;;;6.20;4.65;;;;;;;;;;5092031;28;20043;-46
2023/02/22 06:21:53;;;;;;;6.65;4.40;;;;;;;;;;5091743;28;20024;-45
2023/02/22 06:24:19;;;;;;;5.88;4.40;;;;;;;;;;5091908;28;20039;-45
2023/02/22 06:26:45;;;;;;;5.82;4.40;;;;;;;;;;5091635;28;20244;-46
2023/02/22 06:29:11;;;;;;;5.90;4.10;;;;;;;;;;5091452;28;20039;-46
2023/02/22 06:31:37;;;;;;;7.65;4.20;;;;;;;;;;5091399;28;20101;-45
2023/02/22 06:34:03;;;;;;;6.78;4.30;;;;;;;;;;5091201;28;20038;-45
2023/02/22 06:36:30;;;;;;;5.40;4.25;;;;;;;;;;5091115;28;20016;-45
2023/02/22 06:38:56;;;;;;;7.10;4.40;;;;;;;;;;5090907;28;20595;-44
2023/02/22 06:41:23;;;;;;;5.50;4.25;;;;;;;;;;5091378;28;20020;-44
2023/02/22 06:43:49;;;;;;;5.57;4.30;;;;;;;;;;5090721;28;20431;-45
2023/02/22 06:46:15;;;;;;;7.22;4.75;;;;;;;;;;5091862;28;20028;-45
2023/02/22 06:48:42;;;;;;;8.45;4.93;;;;;;;;;;5091279;28;20028;-45
2023/02/22 06:51:08;;;;;;;6.35;5.10;;;;;;;;;;5091042;28;20016;-46
2023/02/22 06:53:34;;;;;;;7.70;5.28;;;;;;;;;;5091130;28;20024;-47
2023/02/22 06:56:01;;;;;;;8.52;5.93;;;;;;;;;;5091107;28;20024;-45
2023/02/22 06:58:27;;;;;;;10.88;6.45;;;;;;;;;;5091286;28;20774;-46
2023/02/22 07:00:53;;;;;;;8.95;6.10;;;;;;;;;;5090756;28;20024;-45
2023/02/22 07:03:19;;;;;;;10.95;6.32;;;;;;;;;;5090974;28;20032;-45
2023/02/22 07:05:46;;;;;;;8.18;5.70;;;;;;;;;;5090944;28;20469;-44
2023/02/22 07:08:12;;;;;;;9.18;6.03;;;;;;;;;;5090991;28;20047;-47
2023/02/22 07:10:39;;;;;;;9.57;6.50;;;;;;;;;;5090684;28;20077;-45
2023/02/22 07:13:06;;;;;;;10.70;6.50;;;;;;;;;;5090487;28;20020;-44
2023/02/22 07:15:33;;;;;;;8.32;5.70;;;;;;;;;;5090826;28;20030;-45
2023/02/22 07:17:59;;;;;;;10.18;5.80;;;;;;;;;;5090756;28;20042;-47
2023/02/22 07:20:26;;;;;;;7.30;5.28;;;;;;;;;;5090282;28;20395;-44
2023/02/22 07:22:53;;;;;;;8.68;5.53;;;;;;;;;;5090778;28;20099;-44
2023/02/22 07:25:19;;;;;;;7.35;5.03;;;;;;;;;;5090535;28;20028;-44
2023/02/22 07:27:45;;;;;;;6.55;4.57;;;;;;;;;;5072371;28;20560;-45
2023/02/22 07:30:31;;;;;;;6.40;4.45;;;;;;;;;;5090352;28;20055;-47
2023/02/22 07:32:58;;;;;;;5.00;4.07;;;;;;;;;;5090372;28;20388;-45
2023/02/22 07:35:26;;;;;;;6.30;4.65;;;;;;;;;;5090633;28;20028;-47
2023/02/22 07:37:53;;;;;;;5.88;3.92;;;;;;;;;;5089744;28;20032;-46
2023/02/22 07:40:19;;;;;;;6.13;4.10;;;;;;;;;;5107879;28;20024;-45
2023/02/22 07:42:54;;;;;;;5.80;4.38;;;;;;;;;;5105266;28;20028;-45
2023/02/22 07:45:21;;;;;;;6.75;4.90;;;;;;;;;;5090053;28;20031;-48
2023/02/22 07:47:47;;;;;;;7.00;4.82;;;;;;;;;;5089756;28;20038;-45
2023/02/22 07:50:14;;;;;;;8.73;5.53;;;;;;;;;;5089976;28;20108;-46
2023/02/22 07:52:40;;;;;;;6.90;4.82;;;;;;;;;;5089994;28;20042;-44
2023/02/22 07:55:06;;;;;;;8.57;5.07;;;;;;;;;;5089519;28;20028;-46
2023/02/22 07:57:32;;;;;;;5.07;3.78;;;;;;;;;;5089018;28;20020;-46
2023/02/22 07:59:58;;;;;;;6.93;4.55;;;;;;;;;;5089527;28;20582;-46
2023/02/22 08:02:25;;;;;;;6.07;4.00;;;;;;;;;;5090023;28;20066;-45
2023/02/22 08:04:51;;;;;;;5.68;4.22;;;;;;;;;;5089996;28;20445;-45
2023/02/22 08:07:17;;;;;;;5.50;4.25;;;;;;;;;;5088134;28;20564;-45
2023/02/22 08:09:43;;;;;;;4.88;3.85;;;;;;;;;;5089726;28;20024;-45
2023/02/22 08:12:09;;;;;;;5.40;4.10;;;;;;;;;;5086839;28;20036;-46
2023/02/22 08:14:35;;;;;;;5.25;3.67;;;;;;;;;;5087931;28;20031;-46
2023/02/22 08:17:01;;;;;;;4.97;3.75;;;;;;;;;;5071002;28;20077;-46
2023/02/22 08:19:27;;;;;;;6.57;4.40;;;;;;;;;;5067502;28;20031;-45
2023/02/22 08:21:53;;;;;;;6.00;3.95;;;;;;;;;;5067145;28;20029;-44
2023/02/22 08:24:19;;;;;;;5.82;4.13;;;;;;;;;;5073651;28;20665;-45
2023/02/22 08:26:46;;;;;;;4.63;3.33;;;;;;;;;;5087353;28;20043;-45
2023/02/22 08:29:13;;;;;;;5.35;3.60;;;;;;;;;;5087345;28;20024;-46
2023/02/22 08:31:39;;;;;;;5.15;3.53;;;;;;;;;;5080573;28;20032;-46
2023/02/22 08:34:05;;;;;;;3.08;2.72;;;;;;;;;;5082399;28;20039;-46
2023/02/22 08:36:33;;;;;;;5.00;3.38;;;;;;;;;;5088370;28;20036;-47
2023/02/22 08:38:59;;;;;;;5.70;4.05;;;;;;;;;;5086979;28;20831;-47
2023/02/22 08:41:25;;;;;;;4.78;3.25;;;;;;;;;;5087202;28;20028;-46
2023/02/22 08:43:51;;;;;;;6.45;4.10;;;;;;;;;;5085894;28;20066;-46
2023/02/22 08:46:17;;;;;;;4.78;3.25;;;;;;;;;;5084377;28;20028;-46
2023/02/22 08:48:50;;;;;;;5.28;3.58;;;;;;;;;;5085189;28;20016;-46
2023/02/22 08:51:16;;;;;;;7.22;5.28;;;;;;;;;;5085591;28;20407;-46
2023/02/22 08:53:42;;;;;;;5.57;4.38;;;;;;;;;;5085665;28;20020;-45
2023/02/22 08:56:09;;;;;;;6.13;4.22;;;;;;;;;;5085405;28;20028;-45
2023/02/22 08:58:34;;;;;;;7.00;4.07;;;;;;;;;;5085445;28;20119;-47
2023/02/22 09:01:01;;;;;;;4.18;3.10;;;;;;;;;;5085384;28;20473;-45
2023/02/22 09:03:28;;;;;;;4.18;3.35;;;;;;;;;;5085460;28;20526;-46
2023/02/22 09:05:54;;;;;;;4.80;3.47;;;;;;;;;;5085118;28;20032;-45
2023/02/22 09:08:21;;;;;;;4.65;3.47;;;;;;;;;;5085742;28;20031;-45
2023/02/22 09:10:47;;;;;;;5.05;3.90;;;;;;;;;;5085127;28;20040;-45
2023/02/22 09:13:14;;;;;;;4.20;3.20;;;;;;;;;;5085549;28;20187;-45
2023/02/22 09:15:40;;;;;;;6.22;4.22;;;;;;;;;;5085353;28;20040;-46
2023/02/22 09:18:09;;;;;;;8.23;5.25;;;;;;;;;;5085656;28;20048;-45
2023/02/22 09:20:36;;;;;;;7.22;4.15;;;;;;;;;;5086072;28;20073;-45
2023/02/22 09:23:04;;;;;;;8.60;5.32;;;;;;;;;;5085762;28;20019;-46
2023/02/22 09:25:30;;;;;;;5.90;4.38;;;;;;;;;;5066965;28;20467;-45
2023/02/22 09:27:57;;;;;;;5.93;4.03;;;;;;;;;;5084874;28;20038;-48
2023/02/22 09:30:23;;;;;;;5.38;4.10;;;;;;;;;;5085058;28;20499;-45
2023/02/22 09:32:50;;;;;;;6.78;3.83;;;;;;;;;;5085020;28;20031;-45
2023/02/22 09:35:17;;;;;;;6.85;4.28;;;;;;;;;;5085120;28;20099;-47
2023/02/22 09:37:43;;;;;;;5.65;4.13;;;;;;;;;;5085105;28;20017;-47
2023/02/22 09:40:16;;;;;;;6.05;3.85;;;;;;;;;;5084882;28;20024;-47
2023/02/22 09:42:49;;;;;;;7.93;4.68;;;;;;;;;;5064226;28;20500;-46
2023/02/22 09:45:22;;;;;;;7.43;4.68;;;;;;;;;;5065035;28;20344;-45
2023/02/22 09:47:57;;;;;;;5.75;4.03;;;;;;;;;;5065082;28;20515;-45
2023/02/22 09:50:25;;;;;;;4.97;3.28;;;;;;;;;;5064860;28;20514;-46
2023/02/22 09:52:56;;;;;;;4.55;3.13;;;;;;;;;;5064631;28;20511;-48
2023/02/22 09:55:37;;;;;;;6.72;3.67;;;;;;;;;;5064755;28;20356;-46
2023/02/22 09:58:06;;;;;;;4.43;2.95;;;;;;;;;;5065216;28;20028;-45
2023/02/22 10:00:36;;;;;;;5.53;3.83;;;;;;;;;;5065469;28;20025;-46
2023/02/22 10:03:11;;;;;;;6.28;4.00;;;;;;;;;;5065151;28;20445;-45
2023/02/22 10:05:40;;;;;;;4.20;3.42;;;;;;;;;;5064658;28;20032;-46
2023/02/22 10:08:13;;;;;;;7.43;4.70;;;;;;;;;;5066906;28;20029;-46
2023/02/22 10:10:44;;;;;;;6.03;3.80;;;;;;;;;;5085000;28;20626;-45
2023/02/22 10:13:26;;;;;;;4.88;3.63;;;;;;;;;;5081290;28;20383;-45
2023/02/22 10:15:58;;;;;;;8.27;5.50;;;;;;;;;;5064429;28;20032;-45
2023/02/22 10:18:43;;;;;;;7.60;4.55;;;;;;;;;;5064467;28;20530;-45
2023/02/22 10:21:29;;;;;;;7.38;5.25;;;;;;;;;;5067884;28;20027;-45
2023/02/22 10:23:58;;;;;;;8.75;5.72;;;;;;;;;;5068158;28;20261;-46
2023/02/22 10:26:35;;;;;;;7.75;5.20;;;;;;;;;;5050005;28;20809;-46
2023/02/22 10:29:04;;;;;;;4.82;3.78;;;;;;;;;;5068157;28;20138;-47
2023/02/22 10:31:32;;;;;;;3.83;3.33;;;;;;;;;;5068390;28;20573;-46
2023/02/22 10:34:00;;;;;;;5.13;3.70;;;;;;;;;;5067891;28;20024;-46
2023/02/22 10:36:27;;;;;;;8.40;3.55;;;;;;;;;;5068168;28;20033;-46
2023/02/22 10:38:55;;;;;;;5.97;3.38;;;;;;;;;;5068051;28;20024;-45
2023/02/22 10:41:41;;;;;;;5.72;4.03;;;;;;;;;;5067668;28;20496;-45
2023/02/22 10:44:07;;;;;;;5.10;3.65;;;;;;;;;;5067623;28;20391;-46
2023/02/22 10:46:34;;;;;;;5.25;3.40;;;;;;;;;;5068284;28;20021;-48
2023/02/22 10:49:05;;;;;;;5.05;3.30;;;;;;;;;;5067704;28;20024;-45
2023/02/22 10:51:31;;;;;;;4.07;3.13;;;;;;;;;;5080967;28;20033;-45
2023/02/22 10:54:07;;;;;;;5.50;3.45;;;;;;;;;;5088763;28;20016;-45
2023/02/22 10:56:33;;;;;;;4.03;3.03;;;;;;;;;;5086057;28;20035;-46
2023/02/22 10:59:01;;;;;;;5.28;2.75;;;;;;;;;;5083633;28;20507;-45
2023/02/22 11:01:39;;;;;;;4.50;2.55;;;;;;;;;;5085630;28;20081;-46
2023/02/22 11:04:05;;;;;;;3.78;2.13;;;;;;;;;;5070184;28;20024;-46
2023/02/22 11:06:32;;;;;;;3.53;2.63;;;;;;;;;;5088701;28;20042;-46
2023/02/22 11:09:09;;;;;;;4.65;2.97;;;;;;;;;;5085804;28;20040;-45
2023/02/22 11:11:35;;;;;;;5.50;3.40;;;;;;;;;;5083404;28;20126;-45
2023/02/22 11:14:02;;;;;;;5.40;3.47;;;;;;;;;;5088756;28;20024;-47
2023/02/22 11:16:55;;;;;;;6.43;3.80;;;;;;;;;;5088407;28;20073;-46
2023/02/22 11:19:23;;;;;;;9.02;4.60;;;;;;;;;;5085064;28;20079;-47
2023/02/22 11:21:51;;;;;;;8.60;5.18;;;;;;;;;;5088735;28;20020;-46
2023/02/22 11:24:18;;;;;;;8.45;4.90;;;;;;;;;;5070903;28;20440;-49
2023/02/22 11:26:49;;;;;;;9.25;4.65;;;;;;;;;;5088958;28;20079;-45
2023/02/22 11:29:18;;;;;;;8.88;4.25;;;;;;;;;;5088578;28;20031;-46
2023/02/22 11:31:48;;;;;;;8.43;4.63;;;;;;;;;;5088348;28;20043;-46
2023/02/22 11:34:32;;;;;;;6.88;4.30;;;;;;;;;;5088248;28;20112;-47
2023/02/22 11:36:59;;;;;;;;;;;;;;;;;;5088311;28;20069;-46
2023/02/22 11:39:25;;;;;;;7.75;4.05;;;;;;;;;;5103492;28;19903;-45
2023/02/22 11:41:52;;;;;;;6.47;4.28;;;;;;;;;;5106909;28;20250;-45
2023/02/22 11:44:31;;;;;;;6.13;3.60;;;;;;;;;;5088665;28;20510;-47
2023/02/22 11:47:05;;;;;;;6.65;3.85;;;;;;;;;;5085852;28;20028;-46
2023/02/22 11:49:32;;;;;;;;;;;;;;;;;;5087716;28;20115;-45
2023/02/22 11:51:58;;;;;;;6.10;4.15;;;;;;;;;;5087058;28;19908;-46
2023/02/22 11:54:30;;;;;;;7.30;4.70;;;;;;;;;;5087950;28;20097;-46
2023/02/22 11:57:06;;;;;;;8.43;4.85;;;;;;;;;;5087710;28;20059;-46
2023/02/22 11:59:33;;;;;;;8.10;5.00;;;;;;;;;;5086908;28;20267;-46
2023/02/22 12:02:17;;;;;;;7.03;4.43;;;;;;;;;;5081509;28;20561;-46
2023/02/22 12:04:46;;;;;;;6.00;4.13;;;;;;;;;;5088192;28;20056;-49
2023/02/22 12:07:31;;;;;;;6.13;4.60;;;;;;;;;;5079803;28;20030;-46
2023/02/22 12:09:56;;;;;;;;;;;;;;;;;;5084654;28;20127;-46
2023/02/22 12:12:23;;;;;;;9.57;4.25;;;;;;;;;;5083394;28;20542;-46
2023/02/22 12:14:49;;;;;;;6.72;4.38;;;;;;;;;;5108400;28;20028;-45
2023/02/22 12:17:34;;;;;;;5.18;3.60;;;;;;;;;;5092789;28;20024;-45
2023/02/22 12:20:20;;;;;;;6.10;3.47;;;;;;;;;;5090736;28;20042;-45
2023/02/22 12:22:53;;;;;;;5.72;4.00;;;;;;;;;;5089908;28;20141;-45
2023/02/22 12:25:28;;;;;;;4.20;3.05;;;;;;;;;;5071599;28;20421;-45
2023/02/22 12:28:01;;;;;;;4.97;3.78;;;;;;;;;;5089960;28;20012;-45
2023/02/22 12:30:29;;;;;;;7.60;5.30;;;;;;;;;;5089711;28;20035;-45
2023/02/22 12:32:58;;;;;;;8.80;5.18;;;;;;;;;;5088898;28;20056;-46
2023/02/22 12:35:38;;;;;;;7.30;4.10;;;;;;;;;;5089110;28;20039;-45
2023/02/22 12:38:40;;;;;;;5.70;4.05;;;;;;;;;;5089460;28;20654;-45
2023/02/22 12:41:14;;;;;;;8.93;4.65;;;;;;;;;;5024788;28;20048;-46
2023/02/22 12:43:53;;;;;;;5.25;4.00;;;;;;;;;;5071042;28;20127;-45
2023/02/22 12:46:25;;;;;;;7.13;4.22;;;;;;;;;;5089715;28;20507;-47
2023/02/22 12:48:54;;;;;;;10.38;5.65;;;;;;;;;;5089007;28;20077;-46
2023/02/22 12:51:25;;;;;;;10.85;7.15;;;;;;;;;;5089216;28;20040;-47
2023/02/22 12:54:07;;;;;;;10.10;6.57;;;;;;;;;;5070747;28;20491;-46
2023/02/22 12:56:39;;;;;;;8.68;5.47;;;;;;;;;;5088908;28;20039;-45
2023/02/22 12:59:21;;;;;;;7.53;5.00;;;;;;;;;;5089409;28;20414;-46
2023/02/22 13:01:51;;;;;;;6.22;4.60;;;;;;;;;;5088808;28;20027;-46
2023/02/22 13:04:17;;;;;;;9.82;5.22;;;;;;;;;;5088763;28;20112;-45
2023/02/22 13:06:49;;;;;;;6.30;4.35;;;;;;;;;;5089443;28;20217;-46
2023/02/22 13:09:29;;;;;;;5.78;4.13;;;;;;;;;;5088535;28;20028;-46
2023/02/22 13:11:55;;;;;;;4.60;3.50;;;;;;;;;;5082593;28;20046;-45
2023/02/22 13:14:41;;;;;;;4.05;3.08;;;;;;;;;;5087577;28;20063;-46
2023/02/22 13:17:26;;;;;;;4.85;3.30;;;;;;;;;;5087356;28;20024;-49
2023/02/22 13:19:52;;;;;;;5.20;2.83;;;;;;;;;;5087491;28;20066;-46
2023/02/22 13:22:29;;;;;;;5.57;2.88;;;;;;;;;;5088256;28;20506;-48
2023/02/22 13:24:58;;;;;;;4.30;2.60;;;;;;;;;;5088540;28;20092;-46
2023/02/22 13:27:33;;;;;;;3.80;2.70;;;;;;;;;;5089935;28;20028;-46
2023/02/22 13:30:00;;;;;;;3.53;2.50;;;;;;;;;;5088418;28;20028;-49
2023/02/22 13:32:29;;;;;;;3.83;2.47;;;;;;;;;;5087250;28;20032;-50
2023/02/22 13:35:10;;;;;;;3.55;2.25;;;;;;;;;;5086000;28;20021;-49
2023/02/22 13:37:39;;;;;;;3.17;2.47;;;;;;;;;;5086665;28;20106;-45
2023/02/22 13:40:25;;;;;;;2.90;2.00;;;;;;;;;;5068780;28;20029;-46
2023/02/22 13:43:10;;;;;;;3.33;2.58;;;;;;;;;;5086891;28;20097;-49
2023/02/22 13:45:55;;;;;;;4.53;3.10;;;;;;;;;;5086810;28;20035;-48
2023/02/22 13:48:20;;;;;;;;;;;;;;;;;;5087504;28;20031;-46
2023/02/22 13:50:46;;;;;;;4.85;3.13;;;;;;;;;;5086463;28;20442;-47
2023/02/22 13:53:17;;;;;;;4.55;2.90;;;;;;;;;;5087050;28;20024;-48
2023/02/22 13:55:47;;;;;;;3.17;2.50;;;;;;;;;;5089283;28;20523;-49
2023/02/22 13:58:14;;;;;;;4.88;3.30;;;;;;;;;;5111080;28;20031;-48
2023/02/22 14:00:43;;;;;;;6.68;3.63;;;;;;;;;;5110965;28;20398;-46
2023/02/22 14:03:12;;;;;;;4.43;2.92;;;;;;;;;;5111216;28;20015;-46
2023/02/22 14:05:41;;;;;;;4.35;2.75;;;;;;;;;;5110874;28;20494;-46
2023/02/22 14:08:30;;;;;;;3.13;2.78;;;;;;;;;;5111079;28;20059;-46
2023/02/22 14:11:14;;;;;;;4.40;3.25;;;;;;;;;;5105820;28;20032;-46
2023/02/22 14:13:54;;;;;;;3.13;2.65;;;;;;;;;;5090236;28;20495;-47
2023/02/22 14:16:27;;;;;;;4.10;2.78;;;;;;;;;;5090293;28;20024;-46
2023/02/22 14:19:12;;;;;;;4.63;2.90;;;;;;;;;;5090386;28;20236;-48
2023/02/22 14:21:54;;;;;;;3.65;2.65;;;;;;;;;;5090139;28;20031;-45
2023/02/22 14:24:20;;;;;;;2.88;2.35;;;;;;;;;;5089931;28;20510;-47
2023/02/22 14:27:02;;;;;;;3.10;2.30;;;;;;;;;;5090084;28;20028;-46
2023/02/22 14:29:28;;;;;;;3.67;2.95;;;;;;;;;;5090411;28;20099;-48
2023/02/22 14:32:02;;;;;;;3.80;2.42;;;;;;;;;;5090168;28;20027;-48
2023/02/22 14:34:40;;;;;;;4.97;3.33;;;;;;;;;;5090286;28;20028;-45
2023/02/22 14:37:08;;;;;;;3.47;3.03;;;;;;;;;;5090110;28;20031;-47
2023/02/22 14:40:17;;;;;;;4.53;3.08;;;;;;;;;;5089606;28;20258;-47
2023/02/22 14:43:00;;;;;;;3.95;2.55;;;;;;;;;;5077432;28;20036;-46
2023/02/22 14:45:30;;;;;;;3.40;2.60;;;;;;;;;;5089904;28;20047;-47
2023/02/22 14:48:18;;;;;;;4.55;2.83;;;;;;;;;;5090336;28;20097;-45
2023/02/22 14:50:50;;;;;;;4.00;2.90;;;;;;;;;;5072742;28;20059;-46
2023/02/22 14:53:22;;;;;;;4.40;2.85;;;;;;;;;;5089581;28;20032;-45
2023/02/22 14:55:55;;;;;;;3.22;2.70;;;;;;;;;;5089618;28;20032;-47
2023/02/22 14:58:24;;;;;;;2.72;2.33;;;;;;;;;;5089886;28;20555;-46
2023/02/22 15:00:55;;;;;;;4.45;3.00;;;;;;;;;;5089317;28;20463;-47
2023/02/22 15:03:48;;;;;;;4.85;3.58;;;;;;;;;;5089387;28;20427;-46
2023/02/22 15:06:18;;;;;;;5.85;3.90;;;;;;;;;;5088852;28;20024;-45
2023/02/22 15:08:47;;;;;;;4.75;3.55;;;;;;;;;;5089187;28;20024;-47
2023/02/22 15:11:20;;;;;;;5.30;3.30;;;;;;;;;;5088971;28;20111;-46
2023/02/22 15:13:50;;;;;;;5.22;3.45;;;;;;;;;;5089227;28;20032;-47
2023/02/22 15:16:16;;;;;;;4.80;3.25;;;;;;;;;;5089019;28;20097;-48
2023/02/22 15:18:44;;;;;;;2.92;2.63;;;;;;;;;;5089163;28;20085;-46
2023/02/22 15:21:15;;;;;;;3.67;2.63;;;;;;;;;;5088975;28;20108;-45
2023/02/22 15:23:44;;;;;;;3.67;2.30;;;;;;;;;;5088958;28;20051;-45
2023/02/22 15:26:25;;;;;;;5.22;3.70;;;;;;;;;;5088940;28;20108;-48
2023/02/22 15:28:55;;;;;;;5.47;3.60;;;;;;;;;;5088910;28;20447;-46
2023/02/22 15:31:34;;;;;;;5.82;4.10;;;;;;;;;;5088709;28;20086;-46
2023/02/22 15:34:30;;;;;;;6.43;3.53;;;;;;;;;;5089156;28;20028;-46
2023/02/22 15:36:57;;;;;;;3.70;2.95;;;;;;;;;;5067244;28;20055;-46
2023/02/22 15:39:28;;;;;;;2.83;2.50;;;;;;;;;;5088647;28;20027;-46
2023/02/22 15:42:21;;;;;;;4.63;3.20;;;;;;;;;;5088693;28;20475;-46
2023/02/22 15:44:49;;;;;;;4.38;3.15;;;;;;;;;;5085282;28;20442;-47
2023/02/22 15:47:19;;;;;;;3.83;2.60;;;;;;;;;;5088518;28;20028;-48
2023/02/22 15:49:46;;;;;;;4.30;2.97;;;;;;;;;;5088581;28;20024;-49
2023/02/22 15:52:15;;;;;;;3.40;2.42;;;;;;;;;;5087732;28;20043;-49
2023/02/22 15:54:43;;;;;;;4.25;2.88;;;;;;;;;;5087557;28;20024;-48
2023/02/22 15:57:09;;;;;;;4.20;3.33;;;;;;;;;;5081191;28;20028;-47
2023/02/22 15:59:40;;;;;;;5.00;3.65;;;;;;;;;;5088234;28;20024;-50
2023/02/22 16:02:19;;;;;;;5.25;3.47;;;;;;;;;;5087631;28;20032;-50
2023/02/22 16:04:45;;;;;;;4.22;2.97;;;;;;;;;;5087463;28;20511;-46
2023/02/22 16:07:15;;;;;;;4.35;3.00;;;;;;;;;;5087112;28;20120;-46
2023/02/22 16:09:48;;;;;;;2.83;2.30;;;;;;;;;;5088228;28;20106;-49
2023/02/22 16:12:20;;;;;;;3.53;2.58;;;;;;;;;;5069141;28;20077;-48
2023/02/22 16:14:47;;;;;;;3.00;1.98;;;;;;;;;;5087490;28;20036;-46
2023/02/22 16:17:34;;;;;;;3.38;2.50;;;;;;;;;;5076569;28;20055;-45
2023/02/22 16:20:13;;;;;;;3.08;2.58;;;;;;;;;;5087264;28;20115;-50
2023/02/22 16:22:40;;;;;;;2.33;2.05;;;;;;;;;;5088709;28;20020;-47
2023/02/22 16:25:17;;;;;;;2.15;1.85;;;;;;;;;;5088582;28;20028;-49
2023/02/22 16:27:47;;;;;;;2.60;2.35;;;;;;;;;;5088666;28;20615;-46
2023/02/22 16:30:19;;;;;;;2.63;2.25;;;;;;;;;;5087428;28;20036;-46
2023/02/22 16:32:45;;;;;;;2.88;2.28;;;;;;;;;;5088453;28;20032;-48
2023/02/22 16:35:16;;;;;;;2.65;2.22;;;;;;;;;;5088721;28;20127;-50
2023/02/22 16:37:45;;;;;;;2.97;2.10;;;;;;;;;;5088066;28;20012;-47
2023/02/22 16:40:21;;;;;;;2.75;2.33;;;;;;;;;;5088550;28;20521;-46
2023/02/22 16:42:47;;;;;;;2.92;2.47;;;;;;;;;;5088402;28;20024;-46
2023/02/22 16:45:16;;;;;;;2.72;2.25;;;;;;;;;;5088512;28;20036;-46
2023/02/22 16:47:42;;;;;;;4.18;2.20;;;;;;;;;;5088716;28;20024;-45
2023/02/22 16:50:08;;;;;;;4.35;2.60;;;;;;;;;;5089038;28;20036;-46
2023/02/22 16:52:34;;;;;;;4.30;2.90;;;;;;;;;;5088082;28;20101;-49
2023/02/22 16:55:00;;;;;;;6.88;3.42;;;;;;;;;;5088152;28;20580;-47
2023/02/22 16:57:28;;;;;;;10.00;4.72;;;;;;;;;;5089546;28;20020;-46
2023/02/22 16:59:54;;;;;;;10.30;4.93;;;;;;;;;;5089057;28;20024;-47
2023/02/22 17:02:21;;;;;;;6.45;4.40;;;;;;;;;;5089011;28;20020;-46
2023/02/22 17:04:49;;;;;;;9.38;4.57;;;;;;;;;;5088681;28;20040;-47
2023/02/22 17:07:17;;;;;;;6.00;4.10;;;;;;;;;;5092440;28;20027;-48
2023/02/22 17:09:43;;;;;;;5.78;3.47;;;;;;;;;;5088994;28;20189;-50
2023/02/22 17:12:09;;;;;;;5.18;3.70;;;;;;;;;;5087400;28;20028;-45
2023/02/22 17:14:35;;;;;;;8.45;5.28;;;;;;;;;;5089226;28;20446;-45
2023/02/22 17:17:02;;;;;;;9.45;6.07;;;;;;;;;;5089623;28;20023;-46
2023/02/22 17:19:28;;;;;;;11.10;7.00;;;;;;;;;;5088774;28;20036;-46
2023/02/22 17:21:54;;;;;;;11.95;7.38;;;;;;;;;;5088777;28;20020;-45
2023/02/22 17:24:22;;;;;;;11.88;7.68;;;;;;;;;;5088836;28;20024;-47
2023/02/22 17:26:49;;;;;;;7.80;5.70;;;;;;;;;;5089237;28;20399;-47
2023/02/22 17:29:16;;;;;;;12.32;7.10;;;;;;;;;;5072385;28;20042;-46
2023/02/22 17:31:42;;;;;;;10.20;5.78;;;;;;;;;;5090778;28;20028;-44
2023/02/22 17:34:08;;;;;;;8.18;5.05;;;;;;;;;;5092437;28;20027;-44
2023/02/22 17:36:35;;;;;;;6.78;4.53;;;;;;;;;;5093335;28;20448;-45
2023/02/22 17:39:02;;;;;;;6.30;4.38;;;;;;;;;;5092204;28;20035;-44
2023/02/22 17:41:28;;;;;;;8.23;4.70;;;;;;;;;;5093304;28;20708;-43
2023/02/22 17:43:56;;;;;;;8.98;4.93;;;;;;;;;;5093361;28;20028;-46
2023/02/22 17:46:24;;;;;;;7.22;4.63;;;;;;;;;;5085415;28;20074;-44
2023/02/22 17:48:52;;;;;;;5.82;4.05;;;;;;;;;;5088977;28;20035;-43
2023/02/22 17:51:21;;;;;;;10.45;4.88;;;;;;;;;;5076055;28;20016;-43
2023/02/22 17:53:47;;;;;;;7.45;4.57;;;;;;;;;;5096550;28;20106;-43
2023/02/22 17:56:17;;;;;;;7.15;4.60;;;;;;;;;;5092328;28;20069;-42
2023/02/22 17:58:43;;;;;;;4.95;3.83;;;;;;;;;;5082034;28;20500;-42
2023/02/22 18:01:18;;;;;;;6.43;4.28;;;;;;;;;;5091619;28;20119;-43
2023/02/22 18:03:44;;;;;;;5.10;3.60;;;;;;;;;;5091095;28;20395;-43
2023/02/22 18:06:16;;;;;;;4.43;3.38;;;;;;;;;;5090041;28;20036;-42
2023/02/22 18:08:42;;;;;;;3.92;3.10;;;;;;;;;;5087451;28;20032;-43
2023/02/22 18:11:08;;;;;;;3.10;2.55;;;;;;;;;;5060850;28;20392;-43
2023/02/22 18:13:34;;;;;;;3.85;2.78;;;;;;;;;;5089261;28;20028;-43
2023/02/22 18:16:03;;;;;;;3.35;2.70;;;;;;;;;;5089641;28;20023;-42
2023/02/22 18:18:29;;;;;;;4.25;2.80;;;;;;;;;;5090779;28;20028;-42
2023/02/22 18:20:58;;;;;;;3.83;3.17;;;;;;;;;;5089839;28;20091;-43
2023/02/22 18:23:26;;;;;;;3.90;2.60;;;;;;;;;;5091431;28;20032;-43
2023/02/22 18:25:53;;;;;;;4.57;3.30;;;;;;;;;;5090523;28;20101;-42
2023/02/22 18:28:20;;;;;;;4.03;3.17;;;;;;;;;;5089677;28;20031;-43
2023/02/22 18:30:46;;;;;;;3.95;2.97;;;;;;;;;;5089976;28;20506;-43
2023/02/22 18:33:13;;;;;;;4.35;3.00;;;;;;;;;;5089194;28;20032;-43
2023/02/22 18:35:40;;;;;;;5.53;3.67;;;;;;;;;;5087379;28;20702;-42
2023/02/22 18:38:06;;;;;;;3.80;3.08;;;;;;;;;;5087524;28;20119;-43
2023/02/22 18:40:33;;;;;;;5.88;3.40;;;;;;;;;;5069056;28;20395;-43
2023/02/22 18:43:00;;;;;;;5.97;3.40;;;;;;;;;;5088405;28;20191;-43
2023/02/22 18:45:26;;;;;;;4.28;3.10;;;;;;;;;;5087512;28;20046;-44
2023/02/22 18:47:52;;;;;;;3.63;2.95;;;;;;;;;;5087653;28;20059;-43
2023/02/22 18:50:18;;;;;;;6.32;3.78;;;;;;;;;;5086716;28;20067;-44
2023/02/22 18:52:44;;;;;;;6.15;4.13;;;;;;;;;;5087222;28;20024;-44
2023/02/22 18:55:18;;;;;;;6.47;4.28;;;;;;;;;;5077560;28;20384;-43
2023/02/22 18:57:44;;;;;;;5.03;3.90;;;;;;;;;;5076932;28;20020;-44
2023/02/22 19:00:12;;;;;;;6.53;4.22;;;;;;;;;;5087504;28;20024;-44
2023/02/22 19:02:42;;;;;;;6.72;4.53;;;;;;;;;;5086718;28;20030;-44
2023/02/22 19:05:10;;;;;;;6.75;4.28;;;;;;;;;;5086533;28;20123;-45
2023/02/22 19:07:36;;;;;;;6.70;4.45;;;;;;;;;;5068168;28;20042;-44
2023/02/22 19:10:04;;;;;;;5.63;3.95;;;;;;;;;;5087218;28;20078;-44
2023/02/22 19:12:30;;;;;;;7.63;4.35;;;;;;;;;;5087246;28;20036;-44
2023/02/22 19:14:57;;;;;;;7.60;4.63;;;;;;;;;;5086943;28;20562;-45
2023/02/22 19:17:23;;;;;;;9.00;5.38;;;;;;;;;;5086844;28;20459;-43
2023/02/22 19:19:50;;;;;;;7.80;5.03;;;;;;;;;;5087533;28;20048;-44
2023/02/22 19:22:16;;;;;;;10.27;6.00;;;;;;;;;;5087032;28;20024;-44
2023/02/22 19:24:42;;;;;;;8.98;5.95;;;;;;;;;;5068528;28;20028;-47
2023/02/22 19:27:10;;;;;;;9.73;6.10;;;;;;;;;;5086906;28;20028;-44
2023/02/22 19:29:39;;;;;;;10.70;5.88;;;;;;;;;;5086657;28;20043;-44
2023/02/22 19:32:10;;;;;;;9.52;5.55;;;;;;;;;;5068551;28;20062;-44
2023/02/22 19:34:36;;;;;;;13.05;6.70;;;;;;;;;;5085931;28;20024;-44
2023/02/22 19:37:03;;;;;;;10.30;6.25;;;;;;;;;;5069092;28;20036;-47
2023/02/22 19:39:30;;;;;;;9.82;6.32;;;;;;;;;;5087453;28;20071;-44
2023/02/22 19:41:57;;;;;;;11.98;6.03;;;;;;;;;;5087607;28;20621;-44
2023/02/22 19:44:24;;;;;;;10.60;6.25;;;;;;;;;;5086464;28;20099;-44
2023/02/22 19:46:52;;;;;;;12.30;6.85;;;;;;;;;;5068653;28;20041;-44
2023/02/22 19:49:18;;;;;;;12.07;6.85;;;;;;;;;;5086926;28;20154;-47
2023/02/22 19:51:45;;;;;;;13.73;6.90;;;;;;;;;;5091740;28;20111;-45
2023/02/22 19:54:16;;;;;;;12.52;7.72;;;;;;;;;;5094666;28;20024;-46
2023/02/22 19:56:42;;;;;;;12.05;8.32;;;;;;;;;;5084054;28;20029;-44
2023/02/22 19:59:12;;;;;;;12.93;8.02;;;;;;;;;;5086381;28;20027;-47
2023/02/22 20:01:39;;;;;;;12.10;7.45;;;;;;;;;;5086479;28;20103;-45
2023/02/22 20:04:06;;;;;;;10.70;6.63;;;;;;;;;;5086526;28;20111;-44
2023/02/22 20:06:53;;;;;;;8.65;6.15;;;;;;;;;;5086071;28;20369;-43